createdAt,value
2018-07-11T00:00:02.010Z,100922.04
2018-07-11T00:02:33.152Z,100919.89
2018-07-11T00:05:04.193Z,100917.53
2018-07-11T00:07:35.080Z,100914.91
2018-07-11T00:10:06.638Z,100914.50
2018-07-11T00:12:37.707Z,100915.61
2018-07-11T00:15:08.801Z,100906.78
2018-07-11T00:17:40.266Z,100909.47
2018-07-11T00:20:11.295Z,100911.63
2018-07-11T00:22:42.304Z,100916.73
2018-07-11T00:25:14.043Z,100912.09
2018-07-11T00:27:45.051Z,100914.05
2018-07-11T00:30:16.357Z,100917.01
2018-07-11T00:32:47.114Z,100915.77
2018-07-11T00:35:17.833Z,100918.63
2018-07-11T00:37:49.188Z,100925.98
2018-07-11T00:40:20.235Z,100922.97
2018-07-11T00:42:51.497Z,100922.27
2018-07-11T00:45:22.240Z,100927.25
2018-07-11T00:47:52.982Z,100929.13
2018-07-11T00:50:24.042Z,100915.47
2018-07-11T00:52:55.451Z,100919.53
2018-07-11T00:55:26.550Z,100913.97
2018-07-11T00:58:08.095Z,100927.40
2018-07-11T01:00:38.972Z,100930.03
2018-07-11T01:03:09.866Z,100929.77
2018-07-11T01:05:40.610Z,100935.25
2018-07-11T01:08:11.984Z,100930.41
2018-07-11T01:10:42.801Z,100936.05
2018-07-11T01:13:13.598Z,100933.15
2018-07-11T01:15:44.400Z,100929.31
2018-07-11T01:18:18.723Z,100930.47
2018-07-11T01:20:49.233Z,100922.62
2018-07-11T01:23:20.114Z,100918.96
2018-07-11T01:25:51.120Z,100926.95
2018-07-11T01:28:22.183Z,100923.83
2018-07-11T01:30:53.228Z,100928.34
2018-07-11T01:33:24.234Z,100933.53
2018-07-11T01:35:55.274Z,100936.45
2018-07-11T01:38:26.309Z,100923.30
2018-07-11T01:40:57.387Z,100934.39
2018-07-11T01:43:28.132Z,100931.55
2018-07-11T01:45:58.885Z,100932.05
2018-07-11T01:48:29.963Z,100933.04
2018-07-11T01:51:00.822Z,100930.02
2018-07-11T01:53:31.855Z,100936.08
2018-07-11T01:56:03.218Z,100934.00
2018-07-11T01:58:34.545Z,100933.15
2018-07-11T02:01:06.222Z,100924.87
2018-07-11T02:03:36.767Z,100931.73
2018-07-11T02:06:07.692Z,100919.90
2018-07-11T02:08:38.456Z,100924.23
2018-07-11T02:11:09.229Z,100931.91
2018-07-11T02:13:40.281Z,100935.27
2018-07-11T02:16:11.399Z,100933.30
2018-07-11T02:18:42.511Z,100933.49
2018-07-11T02:21:13.314Z,100936.23
2018-07-11T02:23:44.711Z,100930.06
2018-07-11T02:26:15.537Z,100928.02
2018-07-11T02:28:46.266Z,100928.69
2018-07-11T02:31:17.038Z,100927.77
2018-07-11T02:33:48.115Z,100926.06
2018-07-11T02:36:19.143Z,100930.69
2018-07-11T02:38:49.942Z,100926.16
2018-07-11T02:41:20.857Z,100928.00
2018-07-11T02:43:51.904Z,100926.28
2018-07-11T02:46:27.952Z,100928.75
2018-07-11T02:48:58.962Z,100925.94
2018-07-11T02:51:30.008Z,100929.14
2018-07-11T02:54:01.062Z,100922.45
2018-07-11T02:56:31.783Z,100926.91
2018-07-11T02:59:03.532Z,100925.31
2018-07-11T03:01:34.568Z,100920.63
2018-07-11T03:04:06.194Z,100927.09
2018-07-11T03:06:36.946Z,100929.70
2018-07-11T03:09:07.714Z,100928.56
2018-07-11T03:11:38.866Z,100928.32
2018-07-11T03:14:10.228Z,100927.11
2018-07-11T03:16:41.281Z,100930.69
2018-07-11T03:19:12.528Z,100939.82
2018-07-11T03:21:43.571Z,100938.73
2018-07-11T03:24:14.770Z,100942.63
2018-07-11T03:26:45.876Z,100933.94
2018-07-11T03:29:17.903Z,100939.88
2018-07-11T03:31:48.657Z,100933.59
2018-07-11T03:34:19.679Z,100936.80
2018-07-11T03:36:50.664Z,100936.98
2018-07-11T03:39:21.666Z,100937.56
2018-07-11T03:41:52.714Z,100932.02
2018-07-11T03:44:23.632Z,100938.98
2018-07-11T03:46:54.546Z,100945.09
2018-07-11T03:49:25.566Z,100948.28
2018-07-11T03:51:56.582Z,100951.89
2018-07-11T03:54:27.466Z,100944.74
2018-07-11T03:56:58.470Z,100957.55
2018-07-11T03:59:29.588Z,100939.89
2018-07-11T04:02:00.775Z,100952.94
2018-07-11T04:04:31.907Z,100947.09
2018-07-11T04:07:02.935Z,100948.70
2018-07-11T04:09:33.931Z,100954.01
2018-07-11T04:12:04.962Z,100953.34
2018-07-11T04:14:35.723Z,100961.23
2018-07-11T04:17:06.983Z,100946.36
2018-07-11T04:19:37.835Z,100953.79
2018-07-11T04:22:09.091Z,100955.66
2018-07-11T04:24:40.139Z,100960.00
2018-07-11T04:27:11.229Z,100952.47
2018-07-11T04:29:42.644Z,100958.69
2018-07-11T04:32:13.810Z,100953.33
2018-07-11T04:34:45.119Z,100955.39
2018-07-11T04:37:16.230Z,100955.55
2018-07-11T04:39:47.830Z,100957.32
2018-07-11T04:42:18.597Z,100949.44
2018-07-11T04:44:49.682Z,100947.22
2018-07-11T04:47:20.506Z,100947.62
2018-07-11T04:49:51.594Z,100946.23
2018-07-11T04:52:22.650Z,100948.13
2018-07-11T04:54:53.517Z,100950.18
2018-07-11T04:57:24.379Z,100953.05
2018-07-11T04:59:55.486Z,100954.98
2018-07-11T05:02:26.518Z,100956.13
2018-07-11T05:04:57.545Z,100963.17
2018-07-11T05:07:28.328Z,100963.50
2018-07-11T05:09:59.384Z,100961.80
2018-07-11T05:12:30.483Z,100960.23
2018-07-11T05:15:01.714Z,100956.11
2018-07-11T05:17:32.423Z,100956.50
2018-07-11T05:20:03.151Z,100950.20
2018-07-11T05:22:34.158Z,100950.56
2018-07-11T05:25:05.262Z,100948.97
2018-07-11T05:27:36.559Z,100952.45
2018-07-11T05:30:08.103Z,100954.83
2018-07-11T05:32:39.126Z,100959.31
2018-07-11T05:35:11.251Z,100962.23
2018-07-11T05:37:42.366Z,100967.31
2018-07-11T05:40:13.178Z,100964.61
2018-07-11T05:42:44.196Z,100953.16
2018-07-11T05:45:15.350Z,100955.48
2018-07-11T05:47:46.224Z,100951.67
2018-07-11T05:50:16.979Z,100943.80
2018-07-11T05:52:47.747Z,100959.13
2018-07-11T05:55:18.883Z,100959.67
2018-07-11T05:57:50.031Z,100959.88
2018-07-11T06:00:20.777Z,100968.23
2018-07-11T06:02:51.873Z,100968.98
2018-07-11T06:05:22.957Z,100972.45
2018-07-11T06:07:54.138Z,100980.66
2018-07-11T06:10:25.166Z,100976.77
2018-07-11T06:12:56.201Z,100972.41
2018-07-11T06:15:27.005Z,100977.47
2018-07-11T06:17:58.392Z,100982.98
2018-07-11T06:20:29.170Z,100985.14
2018-07-11T06:22:59.927Z,100983.63
2018-07-11T06:25:30.709Z,100981.35
2018-07-11T06:28:01.747Z,100979.19
2018-07-11T06:30:33.110Z,100973.08
2018-07-11T06:33:04.425Z,100980.88
2018-07-11T06:35:35.542Z,100977.45
2018-07-11T06:38:06.574Z,100969.50
2018-07-11T06:40:37.635Z,100983.48
2018-07-11T06:43:08.423Z,100986.27
2018-07-11T06:45:39.220Z,100979.09
2018-07-11T06:48:10.307Z,100977.39
2018-07-11T06:50:41.120Z,100982.27
2018-07-11T06:53:12.009Z,100975.06
2018-07-11T06:55:43.372Z,100977.77
2018-07-11T06:58:14.382Z,100970.42
2018-07-11T07:00:45.758Z,100970.83
2018-07-11T07:03:16.731Z,100968.34
2018-07-11T07:05:47.888Z,100966.77
2018-07-11T07:08:18.647Z,100973.14
2018-07-11T07:10:49.400Z,100970.52
2018-07-11T07:13:20.435Z,100976.28
2018-07-11T07:15:51.247Z,100966.39
2018-07-11T07:18:22.287Z,100975.33
2018-07-11T07:20:53.810Z,100970.00
2018-07-11T07:23:24.543Z,100971.65
2018-07-11T07:25:55.577Z,100981.19
2018-07-11T07:28:26.657Z,100966.25
2018-07-11T07:30:58.114Z,100971.67
2018-07-11T07:33:29.198Z,100971.87
2018-07-11T07:36:00.250Z,100969.48
2018-07-11T07:38:31.913Z,100972.05
2018-07-11T07:41:02.842Z,100962.39
2018-07-11T07:43:34.114Z,100969.41
2018-07-11T07:46:04.906Z,100967.59
2018-07-11T07:48:35.890Z,100968.67
2018-07-11T07:51:06.664Z,100969.16
2018-07-11T07:53:37.402Z,100964.91
2018-07-11T07:56:08.257Z,100958.78
2018-07-11T07:58:39.077Z,100966.68
2018-07-11T08:01:10.470Z,100961.31
2018-07-11T08:03:41.293Z,100953.99
2018-07-11T08:06:12.375Z,100947.67
2018-07-11T08:08:43.461Z,100958.13
2018-07-11T08:11:15.159Z,100957.89
2018-07-11T08:13:46.186Z,100954.79
2018-07-11T08:16:17.273Z,100953.92
2018-07-11T08:18:48.634Z,100957.57
2018-07-11T08:21:19.749Z,100962.46
2018-07-11T08:24:07.840Z,100967.28
2018-07-11T08:27:57.631Z,100965.86
2018-07-11T08:33:53.346Z,100965.61
2018-07-11T08:38:43.289Z,100961.27
2018-07-11T08:43:50.901Z,100959.19
2018-07-11T08:46:43.957Z,100957.08
2018-07-11T08:49:40.656Z,100950.91
2018-07-11T08:52:24.807Z,100940.09
2018-07-11T08:55:21.167Z,100951.66
2018-07-11T08:59:15.515Z,100955.84
2018-07-11T09:02:34.662Z,100948.08
2018-07-11T09:05:22.492Z,100957.67
2018-07-11T09:10:16.890Z,100941.52
2018-07-11T09:12:59.807Z,100959.41
2018-07-11T09:15:47.784Z,100960.16
2018-07-11T09:19:28.968Z,100962.53
2018-07-11T09:22:30.839Z,100957.36
2018-07-11T09:25:01.834Z,100951.05
2018-07-11T09:27:32.563Z,100957.48
2018-07-11T09:30:03.592Z,100947.70
2018-07-11T09:32:34.928Z,100951.55
2018-07-11T09:35:05.915Z,100942.41
2018-07-11T09:37:37.313Z,100949.57
2018-07-11T09:40:08.482Z,100949.55
2018-07-11T09:42:39.563Z,100942.70
2018-07-11T09:45:11.380Z,100933.48
2018-07-11T09:47:42.965Z,100928.41
2018-07-11T09:50:15.003Z,100920.45
2018-07-11T09:52:46.077Z,100926.48
2018-07-11T09:55:17.085Z,100913.95
2018-07-11T09:57:48.403Z,100920.19
2018-07-11T10:01:23.418Z,100909.35
2018-07-11T10:03:55.028Z,100904.52
2018-07-11T10:06:28.202Z,100896.48
2018-07-11T10:09:00.098Z,100897.36
2018-07-11T10:11:31.195Z,100895.16
2018-07-11T10:14:02.219Z,100892.59
2018-07-11T10:16:33.801Z,100892.94
2018-07-11T10:19:05.754Z,100892.95
2018-07-11T10:21:36.754Z,100889.94
2018-07-11T10:24:07.937Z,100889.94
2018-07-11T10:26:38.701Z,100891.86
2018-07-11T10:29:09.563Z,100886.32
2018-07-11T10:31:40.948Z,100880.63
2018-07-11T10:34:12.063Z,100882.19
2018-07-11T10:36:43.078Z,100870.41
2018-07-11T10:39:14.160Z,100874.59
2018-07-11T10:41:45.172Z,100879.66
2018-07-11T10:44:18.701Z,100874.72
2018-07-11T10:46:50.498Z,100871.96
2018-07-11T10:49:21.560Z,100867.34
2018-07-11T10:51:53.227Z,100872.86
2018-07-11T10:54:24.357Z,100873.81
2018-07-11T10:56:56.313Z,100869.49
2018-07-11T10:59:28.035Z,100870.49
2018-07-11T11:01:59.141Z,100867.52
2018-07-11T11:04:30.578Z,100861.63
2018-07-11T11:07:01.703Z,100862.72
2018-07-11T11:09:32.744Z,100859.08
2018-07-11T11:12:04.527Z,100858.34
2018-07-11T11:14:35.798Z,100852.42
2018-07-11T11:17:06.990Z,100852.79
2018-07-11T11:19:38.111Z,100853.39
2018-07-11T11:22:09.639Z,100858.47
2018-07-11T11:24:41.659Z,100852.79
2018-07-11T11:27:13.208Z,100855.45
2018-07-11T11:29:44.194Z,100847.37
2018-07-11T11:32:16.680Z,100843.10
2018-07-11T11:34:47.851Z,100850.51
2018-07-11T11:37:19.430Z,100842.41
2018-07-11T11:39:51.388Z,100840.61
2018-07-11T11:42:23.427Z,100846.74
2018-07-11T11:44:54.852Z,100841.55
2018-07-11T11:47:27.188Z,100848.56
2018-07-11T11:49:58.565Z,100842.19
2018-07-11T11:52:30.240Z,100842.53
2018-07-11T11:55:01.676Z,100847.60
2018-07-11T11:57:32.918Z,100833.73
2018-07-11T12:00:04.033Z,100832.49
2018-07-11T12:02:35.432Z,100836.98
2018-07-11T12:05:07.617Z,100839.14
2018-07-11T12:07:38.760Z,100846.20
2018-07-11T12:10:10.262Z,100839.80
2018-07-11T12:12:41.990Z,100860.31
2018-07-11T12:15:13.597Z,100861.05
2018-07-11T12:17:44.319Z,100854.82
2018-07-11T12:20:15.063Z,100860.26
2018-07-11T12:22:46.335Z,100855.20
2018-07-11T12:25:17.527Z,100867.13
2018-07-11T12:27:48.651Z,100862.07
2018-07-11T12:30:19.681Z,100857.59
2018-07-11T12:32:50.515Z,100863.96
2018-07-11T12:35:21.798Z,100860.82
2018-07-11T12:37:53.115Z,100874.41
2018-07-11T12:40:24.194Z,100878.25
2018-07-11T12:42:54.933Z,100885.36
2018-07-11T12:45:26.842Z,100886.69
2018-07-11T12:48:02.938Z,100881.13
2018-07-11T12:50:33.655Z,100876.53
2018-07-11T12:53:04.770Z,100882.05
2018-07-11T12:55:36.122Z,100875.39
2018-07-11T12:58:06.935Z,100871.80
2018-07-11T13:00:38.144Z,100845.69
2018-07-11T13:03:09.133Z,100863.28
2018-07-11T13:05:40.554Z,100863.91
2018-07-11T13:08:11.630Z,100859.33
2018-07-11T13:10:42.660Z,100857.39
2018-07-11T13:13:13.509Z,100855.84
2018-07-11T13:15:44.990Z,100841.64
2018-07-11T13:18:16.611Z,100858.74
2018-07-11T13:20:48.185Z,100848.76
2018-07-11T13:23:19.260Z,100850.69
2018-07-11T13:25:50.144Z,100849.13
2018-07-11T13:28:21.584Z,100845.41
2018-07-11T13:30:52.940Z,100846.73
2018-07-11T13:33:24.136Z,100844.56
2018-07-11T13:35:55.267Z,100842.29
2018-07-11T13:38:26.063Z,100840.45
2018-07-11T13:40:56.859Z,100839.98
2018-07-11T13:43:27.974Z,100839.14
2018-07-11T13:45:59.470Z,100832.52
2018-07-11T13:48:30.462Z,100837.95
2018-07-11T13:51:01.901Z,100830.02
2018-07-11T13:53:33.374Z,100835.31
2018-07-11T13:56:04.378Z,100830.02
2018-07-11T13:58:36.758Z,100840.00
2018-07-11T14:01:07.687Z,100838.06
2018-07-11T14:03:38.435Z,100839.89
2018-07-11T14:06:09.532Z,100842.76
2018-07-11T14:08:40.660Z,100849.34
2018-07-11T14:11:12.092Z,100845.86
2018-07-11T14:13:43.322Z,100856.25
2018-07-11T14:16:14.961Z,100844.45
2018-07-11T14:18:46.038Z,100842.95
2018-07-11T14:21:16.833Z,100842.09
2018-07-11T14:23:48.382Z,100835.48
2018-07-11T14:26:22.231Z,100841.84
2018-07-11T14:28:54.304Z,100837.05
2018-07-11T14:31:36.232Z,100833.91
2018-07-11T14:34:09.125Z,100834.18
2018-07-11T14:36:40.032Z,100839.41
2018-07-11T14:39:11.111Z,100831.33
2018-07-11T14:41:42.297Z,100836.42
2018-07-11T14:44:13.134Z,100836.32
2018-07-11T14:46:44.169Z,100842.02
2018-07-11T14:49:16.269Z,100838.49
2018-07-11T14:51:47.009Z,100836.89
2018-07-11T14:54:19.451Z,100831.70
2018-07-11T14:56:51.479Z,100833.94
2018-07-11T14:59:23.254Z,100833.09
2018-07-11T15:01:54.655Z,100837.41
2018-07-11T15:04:25.707Z,100838.94
2018-07-11T15:06:56.807Z,100829.13
2018-07-11T15:09:28.111Z,100825.16
2018-07-11T15:11:59.282Z,100825.59
2018-07-11T15:14:30.468Z,100824.55
2018-07-11T15:17:01.291Z,100828.79
2018-07-11T15:19:32.499Z,100824.47
2018-07-11T15:22:04.147Z,100822.36
2018-07-11T15:24:35.227Z,100815.48
2018-07-11T15:27:06.133Z,100823.87
2018-07-11T15:29:36.961Z,100814.31
2018-07-11T15:32:07.994Z,100812.86
2018-07-11T15:34:40.370Z,100812.92
2018-07-11T15:37:11.834Z,100809.34
2018-07-11T15:39:43.575Z,100807.78
2018-07-11T15:42:14.645Z,100812.60
2018-07-11T15:44:45.973Z,100786.06
2018-07-11T15:47:20.269Z,100804.88
2018-07-11T15:49:53.465Z,100813.44
2018-07-11T15:52:26.065Z,100808.00
2018-07-11T15:54:59.932Z,100816.97
2018-07-11T15:57:44.757Z,100815.23
2018-07-11T16:00:16.347Z,100805.59
2018-07-11T16:02:49.242Z,100803.42
2018-07-11T16:05:23.197Z,100804.77
2018-07-11T16:07:55.182Z,100800.63
2018-07-11T16:10:42.674Z,100803.67
2018-07-11T16:13:13.465Z,100811.36
2018-07-11T16:15:44.947Z,100811.36
2018-07-11T16:18:15.930Z,100808.02
2018-07-11T16:20:47.005Z,100806.46
2018-07-11T16:23:17.661Z,100801.80
2018-07-11T16:25:48.488Z,100806.36
2018-07-11T16:28:19.535Z,100805.50
2018-07-11T16:30:50.788Z,100804.06
2018-07-11T16:33:21.855Z,100803.59
2018-07-11T16:35:53.628Z,100799.39
2018-07-11T16:38:25.104Z,100802.38
2018-07-11T16:40:56.171Z,100799.72
2018-07-11T16:43:27.674Z,100801.91
2018-07-11T16:45:58.902Z,100795.91
2018-07-11T16:48:29.625Z,100794.33
2018-07-11T16:51:00.426Z,100798.55
2018-07-11T16:53:31.309Z,100799.27
2018-07-11T16:56:02.491Z,100788.30
2018-07-11T16:58:42.625Z,100792.05
2018-07-11T17:01:13.899Z,100799.89
2018-07-11T17:03:46.286Z,100798.81
2018-07-11T17:06:18.182Z,100802.17
2018-07-11T17:08:52.454Z,100800.25
2018-07-11T17:11:27.156Z,100800.63
2018-07-11T17:14:02.416Z,100802.66
2018-07-11T17:17:11.076Z,100805.55
2018-07-11T17:19:54.702Z,100809.16
2018-07-11T17:22:32.677Z,100806.85
2018-07-11T17:25:06.800Z,100807.12
2018-07-11T17:27:37.726Z,100813.47
2018-07-11T17:30:08.907Z,100811.67
2018-07-11T17:32:39.986Z,100814.56
2018-07-11T17:35:10.716Z,100813.23
2018-07-11T17:37:42.807Z,100811.92
